Time,TemperatureF,DewpointF,PressureIn,WindDirection,WindDirectionDegrees,WindSpeedMPH,WindSpeedGustMPH,Humidity,HourlyPrecipIn,Conditions,Clouds,dailyrainin,SolarRadiationWatts/m^2,SoftwareType,DateUTC
2013-07-12 07:15:00,62.3,59.0,29.47,NNE,24,0.0,9.0,89,0.00,,,0.00,272,Wunderground v.1.15,2013-07-12 12:15:00,
2013-07-12 07:20:00,63.0,59.1,29.47,NNE,24,0.0,9.0,87,0.00,,,0.00,287,Wunderground v.1.15,2013-07-12 12:20:00,
2013-07-12 07:25:00,63.4,58.8,29.47,NNE,24,0.0,9.0,85,0.00,,,0.00,297,Wunderground v.1.15,2013-07-12 12:25:00,
2013-07-12 07:30:00,63.8,59.2,29.47,NNE,24,0.0,9.0,85,0.00,,,0.00,316,Wunderground v.1.15,2013-07-12 12:30:00,
2013-07-12 07:39:00,64.7,59.1,29.46,NNE,30,0.0,9.0,82,0.00,,,0.00,355,Wunderground v.1.15,2013-07-12 12:39:00,
2013-07-12 07:45:00,65.2,59.2,29.47,NNE,30,1.0,9.0,81,0.00,,,0.00,367,Wunderground v.1.15,2013-07-12 12:45:00,
2013-07-12 07:55:00,66.0,59.7,29.46,NE,55,1.0,9.0,80,0.00,,,0.00,403,Wunderground v.1.15,2013-07-12 12:55:00,
2013-07-12 08:00:00,66.3,59.9,29.47,NNW,336,1.0,9.0,80,0.00,,,0.00,420,Wunderground v.1.15,2013-07-12 13:00:00,
2013-07-12 08:09:00,67.4,59.9,29.48,North,355,1.0,9.0,77,0.00,,,0.00,452,Wunderground v.1.15,2013-07-12 13:09:00,
2013-07-12 08:15:00,68.2,61.1,29.48,North,360,1.0,9.0,78,0.00,,,0.00,468,Wunderground v.1.15,2013-07-12 13:15:00,
2013-07-12 08:24:00,69.2,60.9,29.48,NNE,26,1.0,9.0,75,0.00,,,0.00,496,Wunderground v.1.15,2013-07-12 13:24:00,
2013-07-12 08:30:00,69.4,60.8,29.49,NNE,23,1.0,9.0,74,0.00,,,0.00,512,Wunderground v.1.15,2013-07-12 13:30:00,
2013-07-12 08:39:00,70.5,61.4,29.48,ENE,71,1.0,9.0,73,0.00,,,0.00,545,Wunderground v.1.15,2013-07-12 13:39:00,
2013-07-12 08:45:00,70.9,61.4,29.49,NNE,20,1.0,9.0,72,0.00,,,0.00,561,Wunderground v.1.15,2013-07-12 13:45:00,
2013-07-12 08:54:00,71.1,60.0,29.48,NNE,30,2.0,9.0,68,0.00,,,0.00,589,Wunderground v.1.15,2013-07-12 13:54:00,
2013-07-12 08:59:00,71.5,59.5,29.48,NNE,13,1.0,9.0,66,0.00,,,0.00,603,Wunderground v.1.15,2013-07-12 13:59:00,
2013-07-12 09:09:00,72.0,60.0,29.48,East,94,1.0,9.0,66,0.00,,,0.00,635,Wunderground v.1.15,2013-07-12 14:09:00,
2013-07-12 09:14:00,72.3,59.4,29.48,NNE,21,1.0,9.0,64,0.00,,,0.00,650,Wunderground v.1.15,2013-07-12 14:14:00,
2013-07-12 09:24:00,72.7,58.9,29.48,NNE,22,2.0,9.0,62,0.00,,,0.00,677,Wunderground v.1.15,2013-07-12 14:24:00,
2013-07-12 09:34:00,72.9,59.6,29.48,NE,39,2.0,9.0,63,0.00,,,0.00,703,Wunderground v.1.15,2013-07-12 14:34:00,
2013-07-12 09:44:00,74.0,58.3,29.48,NE,52,1.0,9.0,58,0.00,,,0.00,733,Wunderground v.1.15,2013-07-12 14:44:00,
2013-07-12 09:54:00,74.6,58.8,29.48,ENE,61,1.0,2.0,58,0.00,,,0.00,759,Wunderground v.1.15,2013-07-12 14:54:00,
2013-07-12 09:59:00,74.1,56.9,29.48,ENE,63,1.0,9.0,55,0.00,,,0.00,772,Wunderground v.1.15,2013-07-12 14:59:00,
2013-07-12 10:09:00,75.2,55.8,29.48,NNE,32,1.0,9.0,51,0.00,,,0.00,796,Wunderground v.1.15,2013-07-12 15:09:00,
2013-07-12 10:14:00,75.2,55.3,29.48,NNE,33,1.0,9.0,50,0.00,,,0.00,807,Wunderground v.1.15,2013-07-12 15:14:00,
2013-07-12 10:24:00,75.8,57.4,29.48,ENE,59,1.0,9.0,53,0.00,,,0.00,828,Wunderground v.1.15,2013-07-12 15:24:00,
2013-07-12 10:29:00,75.6,57.8,29.47,ENE,59,1.0,9.0,54,0.00,,,0.00,835,Wunderground v.1.15,2013-07-12 15:29:00,
2013-07-12 10:39:00,76.7,56.1,29.48,ENE,57,0.0,9.0,49,0.00,,,0.00,858,Wunderground v.1.15,2013-07-12 15:39:00,
2013-07-12 10:49:00,77.2,56.0,29.48,North,9,1.0,1.0,48,0.00,,,0.00,870,Wunderground v.1.15,2013-07-12 15:49:00,
2013-07-12 10:54:00,76.9,56.3,29.48,NE,55,1.0,9.0,49,0.00,,,0.00,877,Wunderground v.1.15,2013-07-12 15:54:00,
2013-07-12 11:04:00,76.5,54.8,29.47,NE,55,1.0,9.0,47,0.00,,,0.00,891,Wunderground v.1.15,2013-07-12 16:04:00,
2013-07-12 11:09:00,77.7,54.0,29.47,NE,51,1.0,1.0,44,0.00,,,0.00,898,Wunderground v.1.15,2013-07-12 16:09:00,
2013-07-12 11:19:00,77.1,55.3,29.47,SE,138,1.0,9.0,47,0.00,,,0.00,904,Wunderground v.1.15,2013-07-12 16:19:00,
2013-07-12 11:24:00,77.6,56.4,29.47,SE,139,1.0,9.0,48,0.00,,,0.00,907,Wunderground v.1.15,2013-07-12 16:24:00,
2013-07-12 11:34:00,77.8,56.5,29.47,SE,140,1.0,9.0,48,0.00,,,0.00,921,Wunderground v.1.15,2013-07-12 16:34:00,
2013-07-12 11:39:00,77.3,58.3,29.47,SE,140,1.0,9.0,52,0.00,,,0.00,928,Wunderground v.1.15,2013-07-12 16:39:00,
2013-07-12 11:49:00,78.2,57.5,29.47,SE,140,1.0,9.0,49,0.00,,,0.00,933,Wunderground v.1.15,2013-07-12 16:49:00,
2013-07-12 11:58:00,78.8,56.9,29.47,SE,140,1.0,1.0,47,0.00,,,0.00,933,Wunderground v.1.15,2013-07-12 16:58:00,
2013-07-12 12:04:00,79.1,60.0,29.47,SE,138,1.0,2.0,52,0.00,,,0.00,940,Wunderground v.1.15,2013-07-12 17:04:00,
2013-07-12 12:14:00,79.3,60.1,29.46,SE,140,0.0,9.0,52,0.00,,,0.00,946,Wunderground v.1.15,2013-07-12 17:14:00,
2013-07-12 12:23:00,79.1,57.1,29.46,ENE,59,1.0,9.0,47,0.00,,,0.00,949,Wunderground v.1.15,2013-07-12 17:23:00,
2013-07-12 12:29:00,79.0,58.2,29.46,ENE,60,1.0,1.0,49,0.00,,,0.00,946,Wunderground v.1.15,2013-07-12 17:29:00,
2013-07-12 12:38:00,79.5,58.1,29.46,NE,46,1.0,1.0,48,0.00,,,0.00,947,Wunderground v.1.15,2013-07-12 17:38:00,
2013-07-12 12:49:00,79.6,57.6,29.46,ENE,59,1.0,9.0,47,0.00,,,0.00,946,Wunderground v.1.15,2013-07-12 17:49:00,
2013-07-12 12:58:00,79.8,57.2,29.46,ENE,70,1.0,9.0,46,0.00,,,0.00,949,Wunderground v.1.15,2013-07-12 17:58:00,
2013-07-12 13:03:00,79.4,56.8,29.45,East,84,1.0,9.0,46,0.00,,,0.00,947,Wunderground v.1.15,2013-07-12 18:03:00,
2013-07-12 13:13:00,78.9,56.4,29.45,ESE,112,1.0,9.0,46,0.00,,,0.00,942,Wunderground v.1.15,2013-07-12 18:13:00,
2013-07-12 13:23:00,79.3,57.9,29.45,ENE,65,1.0,9.0,48,0.00,,,0.00,940,Wunderground v.1.15,2013-07-12 18:23:00,
2013-07-12 13:33:00,79.0,57.6,29.45,SE,137,1.0,9.0,48,0.00,,,0.00,935,Wunderground v.1.15,2013-07-12 18:33:00,
2013-07-12 13:43:00,80.1,58.6,29.45,SSW,201,1.0,9.0,48,0.00,,,0.00,926,Wunderground v.1.15,2013-07-12 18:43:00,
2013-07-12 13:53:00,80.2,58.7,29.44,SW,234,1.0,9.0,48,0.00,,,0.00,918,Wunderground v.1.15,2013-07-12 18:53:00,
2013-07-12 13:58:00,80.5,60.1,29.44,South,175,1.0,1.0,50,0.00,,,0.00,916,Wunderground v.1.15,2013-07-12 18:58:00,
2013-07-12 14:18:00,80.6,60.2,29.44,ESE,114,0.0,9.0,50,0.00,,,0.00,896,Wunderground v.1.15,2013-07-12 19:18:00,
2013-07-12 14:28:00,80.9,60.5,29.43,SSW,194,1.0,9.0,50,0.00,,,0.00,877,Wunderground v.1.15,2013-07-12 19:28:00,
2013-07-12 14:38:00,81.5,59.9,29.43,SSW,194,0.0,9.0,48,0.00,,,0.00,853,Wunderground v.1.15,2013-07-12 19:38:00,
2013-07-12 14:48:00,82.0,60.4,29.43,South,191,1.0,1.0,48,0.00,,,0.00,838,Wunderground v.1.15,2013-07-12 19:48:00,
2013-07-12 14:53:00,81.8,60.8,29.43,South,191,1.0,9.0,49,0.00,,,0.00,830,Wunderground v.1.15,2013-07-12 19:53:00,
2013-07-12 15:03:00,80.7,61.4,29.43,East,92,2.0,9.0,52,0.00,,,0.00,803,Wunderground v.1.15,2013-07-12 20:03:00,
2013-07-12 15:13:00,80.8,61.5,29.43,ENE,67,1.0,9.0,52,0.00,,,0.00,789,Wunderground v.1.15,2013-07-12 20:13:00,
2013-07-12 15:18:00,81.0,60.6,29.42,NNW,333,2.0,9.0,50,0.00,,,0.00,784,Wunderground v.1.15,2013-07-12 20:18:00,